Time;durP1;ratioP1;P1;durP2;ratioP2;P2;SDS_P1;SDS_P2;PMS_P1;PMS_P2;Temp;Humidity;BMP_temperature;BMP_pressure;BME280_temperature;BME280_humidity;BME280_pressure;Samples;Min_cycle;Max_cycle;Signal;HPM_P1;HPM_P2
2021/05/30 00:00:22;;;;;;;0.97;0.87;;;;;;;;;;5055799;28;20410;-75
2021/05/30 00:02:50;;;;;;;3.30;1.60;;;;;;;;;;5055589;28;20862;-75
2021/05/30 00:05:18;;;;;;;2.20;1.20;;;;;;;;;;5055584;28;20433;-75
2021/05/30 00:07:46;;;;;;;0.90;0.60;;;;;;;;;;5055285;28;20421;-75
2021/05/30 00:10:14;;;;;;;1.30;1.20;;;;;;;;;;5073511;28;20433;-74
2021/05/30 00:12:43;;;;;;;3.83;1.27;;;;;;;;;;5073797;28;20401;-75
2021/05/30 00:15:10;;;;;;;1.00;0.83;;;;;;;;;;5073734;28;20401;-74
2021/05/30 00:17:36;;;;;;;2.60;1.27;;;;;;;;;;5073726;28;20384;-75
2021/05/30 00:20:07;;;;;;;5.80;2.60;;;;;;;;;;5073707;28;20406;-75
2021/05/30 00:22:33;;;;;;;1.30;0.97;;;;;;;;;;5064839;28;20417;-74
2021/05/30 00:24:59;;;;;;;3.23;1.90;;;;;;;;;;5053443;28;20509;-75
2021/05/30 00:27:25;;;;;;;4.03;1.53;;;;;;;;;;5035715;28;20465;-75
2021/05/30 00:29:54;;;;;;;2.20;1.73;;;;;;;;;;5053224;28;20454;-75
2021/05/30 00:32:23;;;;;;;1.77;1.40;;;;;;;;;;5035298;28;20443;-75
2021/05/30 00:34:49;;;;;;;1.63;1.53;;;;;;;;;;5053481;28;21111;-74
2021/05/30 00:37:17;;;;;;;2.20;0.90;;;;;;;;;;5035336;28;20443;-75
2021/05/30 00:39:43;;;;;;;1.20;1.07;;;;;;;;;;5053170;28;20410;-75
2021/05/30 00:42:09;;;;;;;1.13;0.90;;;;;;;;;;5053186;28;20787;-74
2021/05/30 00:44:35;;;;;;;0.80;0.77;;;;;;;;;;5053258;28;20794;-74
2021/05/30 00:47:01;;;;;;;1.40;1.10;;;;;;;;;;5035249;28;20415;-74
2021/05/30 00:49:27;;;;;;;2.60;1.23;;;;;;;;;;5052978;28;20457;-75
2021/05/30 00:51:55;;;;;;;1.57;1.00;;;;;;;;;;5053248;28;20408;-75
2021/05/30 00:54:24;;;;;;;0.93;0.80;;;;;;;;;;5035295;28;20414;-75
2021/05/30 00:56:52;;;;;;;1.73;1.23;;;;;;;;;;5035319;28;20442;-75
2021/05/30 00:59:18;;;;;;;1.87;1.63;;;;;;;;;;5053580;28;20399;-74
2021/05/30 01:01:44;;;;;;;7.67;1.77;;;;;;;;;;5038386;28;20407;-74
2021/05/30 01:04:11;;;;;;;1.17;1.07;;;;;;;;;;5066961;28;20434;-78
2021/05/30 01:06:41;;;;;;;1.77;1.30;;;;;;;;;;5078446;28;20771;-73
2021/05/30 01:09:07;;;;;;;0.80;0.60;;;;;;;;;;5058597;28;20438;-74
2021/05/30 01:11:34;;;;;;;1.13;0.80;;;;;;;;;;5076027;28;20406;-74
2021/05/30 01:14:00;;;;;;;1.60;1.00;;;;;;;;;;5076705;28;20391;-73
2021/05/30 01:16:29;;;;;;;3.07;1.23;;;;;;;;;;5060831;28;20411;-73
2021/05/30 01:18:58;;;;;;;1.37;1.27;;;;;;;;;;5078054;28;20375;-75
2021/05/30 01:21:24;;;;;;;1.63;1.53;;;;;;;;;;5077590;28;20398;-73
2021/05/30 01:23:52;;;;;;;2.10;1.07;;;;;;;;;;5074879;28;20406;-73
2021/05/30 01:26:21;;;;;;;3.37;1.27;;;;;;;;;;5074320;28;20490;-75
2021/05/30 01:28:48;;;;;;;6.10;2.20;;;;;;;;;;5056525;28;20450;-75
2021/05/30 01:31:14;;;;;;;1.10;1.00;;;;;;;;;;5058490;28;20736;-77
2021/05/30 01:33:40;;;;;;;3.67;1.50;;;;;;;;;;5052795;28;20403;-76
2021/05/30 01:36:06;;;;;;;1.57;1.30;;;;;;;;;;5034709;28;20429;-74
2021/05/30 01:38:33;;;;;;;1.00;0.80;;;;;;;;;;5052486;28;20749;-74
2021/05/30 01:40:59;;;;;;;1.90;0.80;;;;;;;;;;5051860;28;20493;-76
2021/05/30 01:43:27;;;;;;;3.33;1.27;;;;;;;;;;5052313;28;20410;-76
2021/05/30 01:45:53;;;;;;;1.87;1.40;;;;;;;;;;5034293;28;20434;-76
2021/05/30 01:48:22;;;;;;;2.03;1.93;;;;;;;;;;5034008;28;20454;-76
2021/05/30 01:50:50;;;;;;;3.60;0.87;;;;;;;;;;5051974;28;20875;-76
2021/05/30 01:53:19;;;;;;;4.50;1.60;;;;;;;;;;5034103;28;20399;-75
2021/05/30 01:58:17;;;;;;;1.23;1.13;;;;;;;;;;5052195;28;20410;-75
2021/05/30 02:00:46;;;;;;;2.73;1.80;;;;;;;;;;5033543;28;20385;-76
2021/05/30 02:03:14;;;;;;;2.50;2.30;;;;;;;;;;5051878;28;20841;-76
2021/05/30 02:05:46;;;;;;;3.67;1.63;;;;;;;;;;5051747;28;20430;-76
2021/05/30 02:08:12;;;;;;;1.53;1.10;;;;;;;;;;5051676;28;20986;-76
2021/05/30 02:10:40;;;;;;;1.37;1.23;;;;;;;;;;5017350;28;20399;-77
2021/05/30 02:13:07;;;;;;;0.80;0.60;;;;;;;;;;5032977;28;20749;-76
2021/05/30 02:15:36;;;;;;;2.10;1.70;;;;;;;;;;5032853;28;20513;-76
2021/05/30 02:18:02;;;;;;;1.97;1.80;;;;;;;;;;5051618;28;20441;-76
2021/05/30 02:20:40;;;;;;;2.17;1.97;;;;;;;;;;5051827;28;20370;-76
2021/05/30 02:23:10;;;;;;;2.23;1.20;;;;;;;;;;5064550;28;20410;-76
2021/05/30 02:25:36;;;;;;;3.20;1.80;;;;;;;;;;5071386;28;20449;-76
2021/05/30 02:28:02;;;;;;;3.43;1.77;;;;;;;;;;5071173;28;20442;-75
2021/05/30 02:30:28;;;;;;;5.20;2.33;;;;;;;;;;5053036;28;20402;-76
2021/05/30 02:32:54;;;;;;;0.80;0.80;;;;;;;;;;5071350;28;20372;-75
2021/05/30 02:35:20;;;;;;;2.63;2.07;;;;;;;;;;5071477;28;20395;-76
2021/05/30 02:37:46;;;;;;;1.30;1.00;;;;;;;;;;5053571;28;20395;-77
2021/05/30 02:40:13;;;;;;;2.23;1.93;;;;;;;;;;5071264;28;20402;-77
2021/05/30 02:42:39;;;;;;;2.37;1.20;;;;;;;;;;5071249;28;20436;-75
2021/05/30 02:45:05;;;;;;;3.23;1.87;;;;;;;;;;5071507;28;20429;-76
2021/05/30 02:47:31;;;;;;;5.27;1.70;;;;;;;;;;5071267;28;20398;-75
2021/05/30 02:49:58;;;;;;;1.17;0.80;;;;;;;;;;5053058;28;20435;-76
2021/05/30 02:52:26;;;;;;;2.27;1.20;;;;;;;;;;5053439;28;20697;-75
2021/05/30 02:54:55;;;;;;;4.63;1.73;;;;;;;;;;5071414;28;20418;-76
2021/05/30 02:57:21;;;;;;;1.93;1.23;;;;;;;;;;5053362;28;20411;-75
2021/05/30 02:59:52;;;;;;;1.40;0.90;;;;;;;;;;5070641;28;20414;-76
2021/05/30 03:02:18;;;;;;;1.03;0.90;;;;;;;;;;5071008;28;20499;-75
2021/05/30 03:04:44;;;;;;;2.20;1.03;;;;;;;;;;5071154;28;20416;-76
2021/05/30 03:07:10;;;;;;;3.10;1.60;;;;;;;;;;5053198;28;20495;-75
2021/05/30 03:09:38;;;;;;;2.83;2.63;;;;;;;;;;5070498;28;20456;-75
2021/05/30 03:12:04;;;;;;;1.10;1.00;;;;;;;;;;5052893;28;20520;-75
2021/05/30 03:14:30;;;;;;;1.77;1.30;;;;;;;;;;5071140;28;20391;-75
2021/05/30 03:16:56;;;;;;;2.60;1.23;;;;;;;;;;5052855;28;20505;-75
2021/05/30 03:19:22;;;;;;;1.47;1.03;;;;;;;;;;5070538;28;20887;-76
2021/05/30 03:21:51;;;;;;;4.97;1.27;;;;;;;;;;5068207;28;20397;-75
2021/05/30 03:24:17;;;;;;;2.70;1.47;;;;;;;;;;5032629;28;20413;-74
2021/05/30 03:26:43;;;;;;;2.67;1.37;;;;;;;;;;5050466;28;20430;-76
2021/05/30 03:29:09;;;;;;;1.13;0.70;;;;;;;;;;5032229;28;20838;-76
2021/05/30 03:31:36;;;;;;;2.70;1.60;;;;;;;;;;5050617;28;20472;-75
2021/05/30 03:34:02;;;;;;;1.80;1.50;;;;;;;;;;5050435;28;20485;-76
2021/05/30 03:36:29;;;;;;;3.90;1.30;;;;;;;;;;5050493;28;20425;-76
2021/05/30 03:39:03;;;;;;;2.90;1.60;;;;;;;;;;5032618;28;20414;-78
2021/05/30 03:41:36;;;;;;;4.90;2.23;;;;;;;;;;5051104;28;20736;-75
2021/05/30 03:44:03;;;;;;;3.80;2.10;;;;;;;;;;5054037;28;20416;-76
2021/05/30 03:46:29;;;;;;;3.70;2.00;;;;;;;;;;5054090;28;20423;-76
2021/05/30 03:48:55;;;;;;;2.40;1.63;;;;;;;;;;5053975;28;20453;-77
2021/05/30 03:51:26;;;;;;;1.90;1.23;;;;;;;;;;5035928;28;20407;-76
2021/05/30 03:53:52;;;;;;;2.50;1.00;;;;;;;;;;5054029;28;20426;-76
2021/05/30 03:56:18;;;;;;;2.33;2.10;;;;;;;;;;5053799;28;20394;-76
2021/05/30 03:58:44;;;;;;;4.37;2.20;;;;;;;;;;5054031;28;20406;-76
2021/05/30 04:01:12;;;;;;;1.80;1.50;;;;;;;;;;5035701;28;20411;-76
2021/05/30 04:03:41;;;;;;;2.70;1.17;;;;;;;;;;5053684;28;20404;-76
2021/05/30 04:06:07;;;;;;;4.10;1.90;;;;;;;;;;5035938;28;20397;-74
2021/05/30 04:08:34;;;;;;;1.43;0.70;;;;;;;;;;5053563;28;21077;-75
2021/05/30 04:10:59;;;;;;;2.70;1.07;;;;;;;;;;5035562;28;20403;-75
2021/05/30 04:13:25;;;;;;;3.90;1.67;;;;;;;;;;5053716;28;20424;-74
2021/05/30 04:15:54;;;;;;;1.80;1.70;;;;;;;;;;5053696;28;20398;-74
2021/05/30 04:18:23;;;;;;;1.07;0.90;;;;;;;;;;5035633;28;20392;-75
2021/05/30 04:20:52;;;;;;;5.17;2.03;;;;;;;;;;5035344;28;20424;-76
2021/05/30 04:23:21;;;;;;;4.33;1.73;;;;;;;;;;5068351;28;20416;-75
2021/05/30 04:25:47;;;;;;;4.63;2.40;;;;;;;;;;5073438;28;20422;-75
2021/05/30 04:28:13;;;;;;;7.63;1.50;;;;;;;;;;5073548;28;20464;-75
2021/05/30 04:30:39;;;;;;;5.53;2.33;;;;;;;;;;5055028;28;20418;-74
2021/05/30 04:33:08;;;;;;;1.77;1.67;;;;;;;;;;5073601;28;20410;-75
2021/05/30 04:35:34;;;;;;;4.10;1.93;;;;;;;;;;5055838;28;20405;-76
2021/05/30 04:38:00;;;;;;;2.13;2.00;;;;;;;;;;5073362;28;20773;-76
2021/05/30 04:40:26;;;;;;;4.57;1.27;;;;;;;;;;5054798;28;20879;-76
2021/05/30 04:42:52;;;;;;;3.33;2.00;;;;;;;;;;5073138;28;20456;-76
2021/05/30 04:45:19;;;;;;;4.40;2.17;;;;;;;;;;5072849;28;20815;-76
2021/05/30 04:47:45;;;;;;;5.00;2.10;;;;;;;;;;5073001;28;20379;-76
2021/05/30 04:50:12;;;;;;;3.70;1.93;;;;;;;;;;5072602;28;20403;-76
2021/05/30 04:52:38;;;;;;;2.27;1.73;;;;;;;;;;5055000;28;20445;-76
2021/05/30 04:55:04;;;;;;;1.50;1.07;;;;;;;;;;5072770;28;20449;-75
2021/05/30 04:57:35;;;;;;;3.40;1.20;;;;;;;;;;5072922;28;20390;-76
2021/05/30 05:00:04;;;;;;;2.03;1.30;;;;;;;;;;5072574;28;20406;-76
2021/05/30 05:02:30;;;;;;;2.70;1.50;;;;;;;;;;5054658;28;20862;-75
2021/05/30 05:04:56;;;;;;;5.20;2.33;;;;;;;;;;5054481;28;20412;-75
2021/05/30 05:07:22;;;;;;;2.23;1.10;;;;;;;;;;5072587;28;20403;-74
2021/05/30 05:09:48;;;;;;;1.10;0.90;;;;;;;;;;5053775;28;20497;-75
2021/05/30 05:12:16;;;;;;;3.33;2.57;;;;;;;;;;5054785;28;20416;-74
2021/05/30 05:14:42;;;;;;;1.73;0.90;;;;;;;;;;5072406;28;20405;-74
2021/05/30 05:17:08;;;;;;;1.07;0.93;;;;;;;;;;5054716;28;20388;-76
2021/05/30 05:19:34;;;;;;;9.50;2.10;;;;;;;;;;5071969;28;20402;-75
2021/05/30 05:22:00;;;;;;;4.77;1.80;;;;;;;;;;5068146;28;20374;-74
2021/05/30 05:24:26;;;;;;;3.13;1.77;;;;;;;;;;5052409;28;21121;-75
2021/05/30 05:26:52;;;;;;;3.47;1.90;;;;;;;;;;5052477;28;20457;-75
2021/05/30 05:29:18;;;;;;;2.47;1.67;;;;;;;;;;5034248;28;20455;-75
2021/05/30 05:31:46;;;;;;;1.93;1.80;;;;;;;;;;5052343;28;20495;-75
2021/05/30 05:34:12;;;;;;;5.07;3.60;;;;;;;;;;5052245;28;20398;-75
2021/05/30 05:36:38;;;;;;;1.77;1.13;;;;;;;;;;5034824;28;20390;-74
2021/05/30 05:39:07;;;;;;;1.63;0.90;;;;;;;;;;5052115;28;20903;-74
2021/05/30 05:41:33;;;;;;;2.20;1.20;;;;;;;;;;5034076;28;20442;-74
2021/05/30 05:43:59;;;;;;;1.87;1.67;;;;;;;;;;5052138;28;20381;-74
2021/05/30 05:46:27;;;;;;;3.43;1.30;;;;;;;;;;5051842;28;20401;-74
2021/05/30 05:48:56;;;;;;;9.30;3.20;;;;;;;;;;5051897;28;20520;-75
2021/05/30 05:51:23;;;;;;;7.40;1.73;;;;;;;;;;5051692;28;20511;-75
2021/05/30 05:53:53;;;;;;;3.03;1.27;;;;;;;;;;5052064;28;20449;-75
2021/05/30 05:56:19;;;;;;;4.97;2.43;;;;;;;;;;5051851;28;20390;-75
2021/05/30 05:58:47;;;;;;;2.10;1.73;;;;;;;;;;5051823;28;20376;-75
2021/05/30 06:01:13;;;;;;;2.57;2.07;;;;;;;;;;5051656;28;20483;-75
2021/05/30 06:03:39;;;;;;;3.80;2.00;;;;;;;;;;5033710;28;20492;-75
2021/05/30 06:06:06;;;;;;;2.80;1.73;;;;;;;;;;5033064;28;20537;-74
2021/05/30 06:08:32;;;;;;;11.00;1.53;;;;;;;;;;5051529;28;20454;-75
2021/05/30 06:10:58;;;;;;;3.90;1.43;;;;;;;;;;5033264;28;20759;-74
2021/05/30 06:13:24;;;;;;;1.57;1.17;;;;;;;;;;5051534;28;20474;-75
2021/05/30 06:15:50;;;;;;;1.87;1.13;;;;;;;;;;5033296;28;20522;-74
2021/05/30 06:18:21;;;;;;;2.30;1.17;;;;;;;;;;5051451;28;20374;-75
2021/05/30 06:20:47;;;;;;;2.00;1.80;;;;;;;;;;5033191;28;20468;-75
2021/05/30 06:23:14;;;;;;;1.13;0.90;;;;;;;;;;5065760;28;20988;-75
2021/05/30 06:25:44;;;;;;;1.40;1.30;;;;;;;;;;5071496;28;20467;-75
2021/05/30 06:28:10;;;;;;;2.53;1.60;;;;;;;;;;5071697;28;20449;-75
2021/05/30 06:30:38;;;;;;;3.37;1.30;;;;;;;;;;5053214;28;20388;-74
2021/05/30 06:33:08;;;;;;;1.93;1.07;;;;;;;;;;5071499;28;20394;-75
2021/05/30 06:35:35;;;;;;;3.73;1.97;;;;;;;;;;5071367;28;20451;-74
2021/05/30 06:38:01;;;;;;;2.77;1.30;;;;;;;;;;5071405;28;20390;-74
2021/05/30 06:40:28;;;;;;;4.03;3.63;;;;;;;;;;5071149;28;20762;-75
2021/05/30 06:42:54;;;;;;;1.10;0.93;;;;;;;;;;5071633;28;20894;-75
2021/05/30 06:45:20;;;;;;;4.27;1.43;;;;;;;;;;5071393;28;20389;-75
2021/05/30 06:47:48;;;;;;;3.73;1.10;;;;;;;;;;5071251;28;20759;-74
2021/05/30 06:50:17;;;;;;;2.73;1.40;;;;;;;;;;5052830;28;20544;-75
2021/05/30 06:52:43;;;;;;;6.00;1.73;;;;;;;;;;5071562;28;20829;-76
2021/05/30 06:55:09;;;;;;;6.90;1.93;;;;;;;;;;5071290;28;20491;-74
2021/05/30 06:57:35;;;;;;;1.87;1.13;;;;;;;;;;5071260;28;20435;-75
2021/05/30 07:00:01;;;;;;;2.50;1.90;;;;;;;;;;5071140;28;20487;-76
2021/05/30 07:02:27;;;;;;;1.20;1.00;;;;;;;;;;5071286;28;21148;-76
2021/05/30 07:04:53;;;;;;;3.87;1.37;;;;;;;;;;5053194;28;20420;-75
2021/05/30 07:07:19;;;;;;;7.80;1.60;;;;;;;;;;5071623;28;20408;-75
2021/05/30 07:09:45;;;;;;;5.70;1.63;;;;;;;;;;5070248;28;20452;-74
2021/05/30 07:12:13;;;;;;;1.40;0.93;;;;;;;;;;5070917;28;20369;-75
2021/05/30 07:14:41;;;;;;;12.93;2.93;;;;;;;;;;5052828;28;20440;-74
2021/05/30 07:17:07;;;;;;;1.50;1.30;;;;;;;;;;5054275;28;20404;-76
2021/05/30 07:19:33;;;;;;;2.80;1.63;;;;;;;;;;5074458;28;20882;-75
2021/05/30 07:21:59;;;;;;;3.43;1.70;;;;;;;;;;5070610;28;20414;-74
2021/05/30 07:24:25;;;;;;;2.80;2.30;;;;;;;;;;5036669;28;20982;-74
2021/05/30 07:26:51;;;;;;;5.47;3.23;;;;;;;;;;5054298;28;20443;-75
2021/05/30 07:29:17;;;;;;;4.70;2.00;;;;;;;;;;5054069;28;21028;-76
2021/05/30 07:31:43;;;;;;;6.30;2.00;;;;;;;;;;5036486;28;20396;-74
2021/05/30 07:34:12;;;;;;;2.30;1.97;;;;;;;;;;5054370;28;20370;-74
2021/05/30 07:36:38;;;;;;;4.30;2.30;;;;;;;;;;5054116;28;20502;-74
2021/05/30 07:39:05;;;;;;;3.67;2.30;;;;;;;;;;5054155;28;20381;-75
2021/05/30 07:41:33;;;;;;;3.60;2.43;;;;;;;;;;5054225;28;20405;-75
2021/05/30 07:43:59;;;;;;;2.43;1.50;;;;;;;;;;5036276;28;20385;-75
2021/05/30 07:46:27;;;;;;;2.17;1.43;;;;;;;;;;5054012;28;20453;-75
2021/05/30 07:48:53;;;;;;;3.33;2.07;;;;;;;;;;5036466;28;20935;-74
2021/05/30 07:51:20;;;;;;;3.37;1.43;;;;;;;;;;5054209;28;20482;-75
2021/05/30 07:53:46;;;;;;;2.13;1.23;;;;;;;;;;5054303;28;20519;-74
2021/05/30 07:56:12;;;;;;;1.97;1.00;;;;;;;;;;5053989;28;20476;-74
2021/05/30 07:58:38;;;;;;;3.87;1.77;;;;;;;;;;5036358;28;20910;-75
2021/05/30 08:01:04;;;;;;;5.77;1.67;;;;;;;;;;5035917;28;20744;-76
2021/05/30 08:03:30;;;;;;;5.53;1.23;;;;;;;;;;5053697;28;20404;-76
2021/05/30 08:05:56;;;;;;;1.60;1.30;;;;;;;;;;5035701;28;20423;-76
2021/05/30 08:08:22;;;;;;;2.40;1.53;;;;;;;;;;5019183;28;20456;-76
2021/05/30 08:10:51;;;;;;;1.53;1.43;;;;;;;;;;5053660;28;20403;-75
2021/05/30 08:13:18;;;;;;;5.17;3.37;;;;;;;;;;5053729;28;20381;-76
2021/05/30 08:15:43;;;;;;;3.47;2.43;;;;;;;;;;5035693;28;20411;-75
2021/05/30 08:18:10;;;;;;;3.13;1.90;;;;;;;;;;5053535;28;20419;-75
2021/05/30 08:20:36;;;;;;;4.00;1.60;;;;;;;;;;5075721;22;20502;-69
2021/05/30 08:23:02;;;;;;;3.40;2.60;;;;;;;;;;5073069;28;20429;-68
2021/05/30 08:25:28;;;;;;;4.03;2.40;;;;;;;;;;5073212;28;20790;-69
2021/05/30 08:27:54;;;;;;;3.33;2.20;;;;;;;;;;5072296;28;20389;-68
2021/05/30 08:30:20;;;;;;;3.83;2.30;;;;;;;;;;5072348;28;20402;-69
2021/05/30 08:32:47;;;;;;;1.90;1.80;;;;;;;;;;5054920;28;20409;-69
2021/05/30 08:35:13;;;;;;;3.73;2.30;;;;;;;;;;5076994;28;20396;-71
2021/05/30 08:37:43;;;;;;;2.10;1.90;;;;;;;;;;5076212;28;20441;-73
2021/05/30 08:40:09;;;;;;;5.77;2.97;;;;;;;;;;5058189;28;20515;-72
2021/05/30 08:42:35;;;;;;;1.67;1.57;;;;;;;;;;5076983;28;20389;-72
2021/05/30 08:45:01;;;;;;;1.10;1.00;;;;;;;;;;5076259;28;20396;-71
2021/05/30 08:47:28;;;;;;;21.83;2.07;;;;;;;;;;5076531;28;20381;-71
2021/05/30 08:49:54;;;;;;;2.90;1.30;;;;;;;;;;5076586;28;20428;-72
2021/05/30 08:52:20;;;;;;;1.60;1.50;;;;;;;;;;5076734;28;20456;-71
2021/05/30 08:54:47;;;;;;;1.60;1.50;;;;;;;;;;5075954;28;20377;-73
2021/05/30 08:57:13;;;;;;;5.70;4.80;;;;;;;;;;5077235;28;20365;-72
2021/05/30 08:59:41;;;;;;;3.83;2.97;;;;;;;;;;5057696;28;20438;-72
2021/05/30 09:02:13;;;;;;;3.43;3.00;;;;;;;;;;5075773;28;20458;-72
2021/05/30 09:04:38;;;;;;;2.37;1.73;;;;;;;;;;5075976;28;20905;-72
2021/05/30 09:07:05;;;;;;;1.93;1.67;;;;;;;;;;5075717;28;20402;-72
2021/05/30 09:09:37;;;;;;;8.73;2.20;;;;;;;;;;5075262;28;20468;-72
2021/05/30 09:12:04;;;;;;;4.07;2.50;;;;;;;;;;5075660;28;20402;-71
2021/05/30 09:14:32;;;;;;;3.17;2.07;;;;;;;;;;5076389;28;20551;-71
2021/05/30 09:17:11;;;;;;;2.27;2.10;;;;;;;;;;5078026;28;20460;-72
2021/05/30 09:19:43;;;;;;;3.33;1.90;;;;;;;;;;5078707;28;20458;-72
2021/05/30 09:22:17;;;;;;;6.00;2.60;;;;;;;;;;5077580;28;20413;-72
2021/05/30 09:24:53;;;;;;;1.80;1.70;;;;;;;;;;5057305;28;20917;-72
2021/05/30 09:27:19;;;;;;;3.93;2.87;;;;;;;;;;5074580;28;20820;-72
2021/05/30 09:29:45;;;;;;;1.73;1.37;;;;;;;;;;5074262;28;20466;-72
2021/05/30 09:32:11;;;;;;;1.77;1.40;;;;;;;;;;5075364;28;20401;-72
2021/05/30 09:34:41;;;;;;;2.17;1.47;;;;;;;;;;5075951;28;20553;-72
2021/05/30 09:37:09;;;;;;;1.37;1.27;;;;;;;;;;5075379;28;20833;-71
2021/05/30 09:39:35;;;;;;;2.20;1.53;;;;;;;;;;5073705;28;20749;-71
2021/05/30 09:42:19;;;;;;;1.70;1.10;;;;;;;;;;5056959;28;20414;-72
2021/05/30 09:45:01;;;;;;;7.50;3.17;;;;;;;;;;5074638;28;20398;-72
2021/05/30 09:47:33;;;;;;;2.00;1.87;;;;;;;;;;5075622;28;20402;-72
2021/05/30 09:49:59;;;;;;;8.53;2.20;;;;;;;;;;5074875;28;20454;-72
2021/05/30 09:52:44;;;;;;;2.00;1.80;;;;;;;;;;5074611;28;20818;-71
2021/05/30 09:55:14;;;;;;;5.13;3.53;;;;;;;;;;5074623;28;20416;-72
2021/05/30 09:57:40;;;;;;;4.97;1.90;;;;;;;;;;5074871;28;20402;-72
2021/05/30 10:00:20;;;;;;;6.10;1.27;;;;;;;;;;5056357;28;20438;-72
2021/05/30 10:02:46;;;;;;;1.73;1.63;;;;;;;;;;5074307;28;20481;-72
2021/05/30 10:05:14;;;;;;;2.17;1.50;;;;;;;;;;5074201;28;20884;-72
2021/05/30 10:07:41;;;;;;;3.60;1.80;;;;;;;;;;5074556;28;20406;-72
2021/05/30 10:10:07;;;;;;;1.77;1.67;;;;;;;;;;5075034;28;20454;-72
2021/05/30 10:12:34;;;;;;;1.30;1.10;;;;;;;;;;5075027;28;20397;-72
2021/05/30 10:15:03;;;;;;;4.27;2.80;;;;;;;;;;5075043;28;20373;-72
2021/05/30 10:17:31;;;;;;;2.07;1.83;;;;;;;;;;5074863;28;20471;-72
2021/05/30 10:19:57;;;;;;;2.53;1.73;;;;;;;;;;5076070;28;20464;-73
2021/05/30 10:22:24;;;;;;;1.83;1.63;;;;;;;;;;5078837;28;20413;-72
2021/05/30 10:24:50;;;;;;;3.83;1.50;;;;;;;;;;5077599;28;20398;-71
2021/05/30 10:27:23;;;;;;;6.13;1.70;;;;;;;;;;5078168;28;20398;-72
2021/05/30 10:30:08;;;;;;;2.10;1.90;;;;;;;;;;5076949;28;20458;-72
2021/05/30 10:32:37;;;;;;;3.07;2.13;;;;;;;;;;5077177;28;20397;-72
2021/05/30 10:35:22;;;;;;;2.07;1.27;;;;;;;;;;5077254;28;20403;-73
2021/05/30 10:37:52;;;;;;;2.40;2.00;;;;;;;;;;5074753;28;20413;-72
2021/05/30 10:40:21;;;;;;;3.57;1.57;;;;;;;;;;5074352;28;20408;-72
2021/05/30 10:43:06;;;;;;;1.20;1.10;;;;;;;;;;5075037;28;20458;-74
2021/05/30 10:45:31;;;;;;;2.60;1.30;;;;;;;;;;5075110;28;20443;-71
2021/05/30 10:48:04;;;;;;;1.40;1.30;;;;;;;;;;5057158;28;20422;-71
2021/05/30 10:51:00;;;;;;;2.47;1.57;;;;;;;;;;5076006;28;20398;-71
2021/05/30 10:53:35;;;;;;;7.13;2.90;;;;;;;;;;5082631;28;20417;-71
2021/05/30 10:56:14;;;;;;;4.00;1.30;;;;;;;;;;5064051;28;20477;-71
2021/05/30 10:58:41;;;;;;;1.97;1.20;;;;;;;;;;5081573;28;20528;-73
2021/05/30 11:01:15;;;;;;;4.57;1.47;;;;;;;;;;5081494;28;20408;-73
2021/05/30 11:03:51;;;;;;;16.53;2.60;;;;;;;;;;5081912;28;20390;-72
2021/05/30 11:06:37;;;;;;;1.63;1.53;;;;;;;;;;5081461;28;20388;-71
2021/05/30 11:09:03;;;;;;;2.17;1.97;;;;;;;;;;5080429;28;20557;-73
2021/05/30 11:11:30;;;;;;;3.80;1.43;;;;;;;;;;5063072;28;20398;-72
2021/05/30 11:13:57;;;;;;;3.00;1.53;;;;;;;;;;5081604;28;20402;-74
2021/05/30 11:16:24;;;;;;;3.10;2.73;;;;;;;;;;5081959;28;20404;-70
2021/05/30 11:19:00;;;;;;;2.83;2.53;;;;;;;;;;5083189;28;20414;-73
2021/05/30 11:21:29;;;;;;;6.20;1.40;;;;;;;;;;5081766;28;20488;-73
2021/05/30 11:23:55;;;;;;;5.10;2.10;;;;;;;;;;5080367;28;20500;-73
2021/05/30 11:26:21;;;;;;;3.77;3.07;;;;;;;;;;5081222;28;20952;-72
2021/05/30 11:28:48;;;;;;;7.17;6.47;;;;;;;;;;5082373;28;20455;-72
2021/05/30 11:31:14;;;;;;;27.70;11.50;;;;;;;;;;5081652;28;20390;-72
2021/05/30 11:33:46;;;;;;;25.57;12.30;;;;;;;;;;5063350;28;20459;-72
2021/05/30 11:36:15;;;;;;;15.63;4.57;;;;;;;;;;5081247;28;20496;-73
2021/05/30 11:38:48;;;;;;;96.90;31.00;;;;;;;;;;5081504;28;20421;-73
2021/05/30 11:41:15;;;;;;;21.60;6.27;;;;;;;;;;5080776;28;20459;-72
2021/05/30 11:43:53;;;;;;;19.27;9.03;;;;;;;;;;5083117;28;20394;-73
2021/05/30 11:46:19;;;;;;;37.50;12.37;;;;;;;;;;5085324;28;20486;-73
2021/05/30 11:48:45;;;;;;;56.80;31.07;;;;;;;;;;5084714;28;20461;-73
2021/05/30 11:51:11;;;;;;;106.70;41.87;;;;;;;;;;5083303;28;20398;-74
2021/05/30 11:53:37;;;;;;;28.07;13.20;;;;;;;;;;5085460;28;20441;-73
2021/05/30 11:56:05;;;;;;;224.33;84.70;;;;;;;;;;5085301;28;20159;-73
2021/05/30 11:58:31;;;;;;;60.43;25.23;;;;;;;;;;5066583;28;20426;-73
2021/05/30 12:00:58;;;;;;;14.23;8.13;;;;;;;;;;5083945;28;20406;-74
2021/05/30 12:03:24;;;;;;;2.07;1.63;;;;;;;;;;5081847;28;20395;-73
2021/05/30 12:06:00;;;;;;;3.40;2.07;;;;;;;;;;5082696;28;20444;-73
2021/05/30 12:08:27;;;;;;;2.27;1.30;;;;;;;;;;5082967;28;20867;-73
2021/05/30 12:10:54;;;;;;;2.30;1.50;;;;;;;;;;5082377;28;20416;-73
2021/05/30 12:13:27;;;;;;;2.30;0.93;;;;;;;;;;5080246;28;20390;-73
2021/05/30 12:15:53;;;;;;;2.87;1.70;;;;;;;;;;5080893;28;20413;-73
2021/05/30 12:18:21;;;;;;;2.50;1.40;;;;;;;;;;5078808;28;20441;-74
2021/05/30 12:20:47;;;;;;;8.33;2.60;;;;;;;;;;5077179;28;20430;-74
2021/05/30 12:23:20;;;;;;;1.70;1.40;;;;;;;;;;5078284;28;20871;-73
2021/05/30 12:25:47;;;;;;;2.33;1.73;;;;;;;;;;5078893;28;20424;-73
2021/05/30 12:28:14;;;;;;;1.73;1.63;;;;;;;;;;5078048;28;20422;-73
2021/05/30 12:30:40;;;;;;;2.17;1.97;;;;;;;;;;5077049;28;20747;-73
2021/05/30 12:33:06;;;;;;;1.93;1.20;;;;;;;;;;5076408;28;20401;-72
2021/05/30 12:35:45;;;;;;;2.80;1.47;;;;;;;;;;5076344;28;20875;-73
2021/05/30 12:38:12;;;;;;;2.67;1.67;;;;;;;;;;5076372;28;20479;-72
2021/05/30 12:40:38;;;;;;;1.27;1.00;;;;;;;;;;5076966;28;20402;-73
2021/05/30 12:43:04;;;;;;;3.43;2.00;;;;;;;;;;5076906;28;20477;-73
2021/05/30 12:45:31;;;;;;;1.53;1.30;;;;;;;;;;5076288;28;20405;-73
2021/05/30 12:47:57;;;;;;;2.13;1.30;;;;;;;;;;5077143;28;20843;-73
2021/05/30 12:50:23;;;;;;;1.37;1.27;;;;;;;;;;5075638;28;20501;-72
2021/05/30 12:52:54;;;;;;;1.93;1.60;;;;;;;;;;5059205;28;20409;-73
2021/05/30 12:55:23;;;;;;;2.60;2.40;;;;;;;;;;5076635;28;20971;-72
2021/05/30 12:57:51;;;;;;;2.70;1.50;;;;;;;;;;5076244;28;20418;-73
2021/05/30 13:00:19;;;;;;;1.57;1.47;;;;;;;;;;5074786;28;20905;-72
2021/05/30 13:02:55;;;;;;;1.70;1.27;;;;;;;;;;5076575;28;20595;-72
2021/05/30 13:05:30;;;;;;;2.87;1.73;;;;;;;;;;5075085;28;20420;-72
2021/05/30 13:07:56;;;;;;;22.17;3.23;;;;;;;;;;5077982;28;20421;-72
2021/05/30 13:10:22;;;;;;;2.60;1.73;;;;;;;;;;5075690;28;20458;-72
2021/05/30 13:12:49;;;;;;;1.90;1.27;;;;;;;;;;5075921;28;20402;-71
2021/05/30 13:15:19;;;;;;;2.10;1.90;;;;;;;;;;5074500;28;20402;-73
2021/05/30 13:17:57;;;;;;;3.93;1.70;;;;;;;;;;5075230;28;20426;-71
2021/05/30 13:20:25;;;;;;;1.93;1.40;;;;;;;;;;5075057;28;20426;-72
2021/05/30 13:22:55;;;;;;;1.87;1.40;;;;;;;;;;5057761;28;20441;-71
2021/05/30 13:25:31;;;;;;;1.30;1.20;;;;;;;;;;5074475;28;20434;-73
2021/05/30 13:28:17;;;;;;;5.57;2.00;;;;;;;;;;5075429;28;20426;-72
2021/05/30 13:30:44;;;;;;;1.57;1.33;;;;;;;;;;5074680;28;20416;-72
2021/05/30 13:33:10;;;;;;;3.47;1.83;;;;;;;;;;5076808;28;20435;-72
2021/05/30 13:35:36;;;;;;;2.90;1.57;;;;;;;;;;5076409;28;20477;-72
2021/05/30 13:38:03;;;;;;;2.10;1.47;;;;;;;;;;5076834;28;20433;-72
2021/05/30 13:40:36;;;;;;;3.27;1.90;;;;;;;;;;5075106;28;21003;-72
2021/05/30 13:43:02;;;;;;;1.70;1.60;;;;;;;;;;5058187;28;20442;-72
2021/05/30 13:45:28;;;;;;;4.10;1.83;;;;;;;;;;5078631;28;20410;-70
2021/05/30 13:47:56;;;;;;;2.73;2.27;;;;;;;;;;5089587;28;20477;-71
2021/05/30 13:50:22;;;;;;;4.10;1.63;;;;;;;;;;5080927;28;20438;-71
2021/05/30 13:52:48;;;;;;;3.90;2.30;;;;;;;;;;5080993;28;20398;-71
2021/05/30 13:55:16;;;;;;;5.27;2.23;;;;;;;;;;5080607;28;20787;-71
2021/05/30 13:57:42;;;;;;;1.83;1.60;;;;;;;;;;5081251;28;20688;-71
2021/05/30 14:00:10;;;;;;;1.50;1.27;;;;;;;;;;5077377;28;20395;-71
2021/05/30 14:02:36;;;;;;;3.67;2.17;;;;;;;;;;5090029;28;20416;-71
2021/05/30 14:05:02;;;;;;;4.03;1.90;;;;;;;;;;5081527;28;20409;-71
2021/05/30 14:07:28;;;;;;;4.73;1.20;;;;;;;;;;5053043;28;20765;-70
2021/05/30 14:09:54;;;;;;;1.53;1.40;;;;;;;;;;5076290;28;20464;-70
2021/05/30 14:12:20;;;;;;;4.07;2.43;;;;;;;;;;5081484;28;20401;-71
2021/05/30 14:14:46;;;;;;;4.53;2.23;;;;;;;;;;5081815;28;20768;-70
2021/05/30 14:17:12;;;;;;;2.63;2.43;;;;;;;;;;5081456;28;20397;-70
2021/05/30 14:19:38;;;;;;;1.63;1.40;;;;;;;;;;5080100;28;20445;-71
2021/05/30 14:22:05;;;;;;;3.47;1.77;;;;;;;;;;5081277;28;20413;-70
2021/05/30 14:24:31;;;;;;;5.10;1.47;;;;;;;;;;5069886;28;20425;-71
2021/05/30 14:26:58;;;;;;;3.40;1.97;;;;;;;;;;5089632;28;20776;-71
2021/05/30 14:29:24;;;;;;;5.87;2.33;;;;;;;;;;5080417;28;20450;-72
2021/05/30 14:31:50;;;;;;;3.83;1.60;;;;;;;;;;5078288;28;20402;-71
2021/05/30 14:34:16;;;;;;;7.63;1.80;;;;;;;;;;5102833;22;20497;-71
2021/05/30 14:36:42;;;;;;;2.60;1.30;;;;;;;;;;5069650;28;20390;-70
2021/05/30 14:39:08;;;;;;;4.23;2.10;;;;;;;;;;5069369;28;20390;-71
2021/05/30 14:41:35;;;;;;;3.47;1.73;;;;;;;;;;5070163;28;20371;-70
2021/05/30 14:44:01;;;;;;;4.43;2.37;;;;;;;;;;5066638;28;20982;-67
2021/05/30 14:46:27;;;;;;;1.40;1.30;;;;;;;;;;5050110;28;20406;-69
2021/05/30 14:48:53;;;;;;;4.40;2.40;;;;;;;;;;5049855;28;20242;-70